Time;durP1;ratioP1;P1;durP2;ratioP2;P2;SDS_P1;SDS_P2;PMS_P1;PMS_P2;Temp;Humidity;BMP_temperature;BMP_pressure;BME280_temperature;BME280_humidity;BME280_pressure;Samples;Min_cycle;Max_cycle;Signal;HPM_P1;HPM_P2
2022/01/16 00:04:09;;;;;;;10.15;5.65;;;;;;;7.14;55.86;101934.06;5088686;28;20379;-74
2022/01/16 00:06:39;;;;;;;10.15;5.75;;;;;;;7.18;55.92;101951.03;5064612;28;20045;-74
2022/01/16 00:09:06;;;;;;;9.40;5.88;;;;;;;7.16;55.71;101956.50;5084911;28;20052;-74
2022/01/16 00:11:33;;;;;;;10.75;6.43;;;;;;;7.19;55.95;101959.09;5063780;28;20044;-74
2022/01/16 00:14:00;;;;;;;10.23;5.85;;;;;;;7.20;55.94;101973.47;5087467;28;20439;-74
2022/01/16 00:16:26;;;;;;;9.70;5.85;;;;;;;7.21;56.12;101957.22;5084575;28;20450;-74
2022/01/16 00:18:53;;;;;;;9.70;6.07;;;;;;;7.22;55.97;101950.88;5092223;28;20048;-74
2022/01/16 00:21:20;;;;;;;10.68;6.30;;;;;;;7.24;56.08;101954.44;5071069;28;20075;-73
2022/01/16 00:23:47;;;;;;;9.25;5.80;;;;;;;7.26;55.89;101970.56;5085133;28;20083;-73
2022/01/16 00:26:14;;;;;;;10.35;6.18;;;;;;;7.28;55.73;101963.28;5090122;28;20650;-75
2022/01/16 00:28:41;;;;;;;9.73;5.88;;;;;;;7.31;55.93;101954.19;5089242;28;20048;-74
2022/01/16 00:31:08;;;;;;;9.23;5.70;;;;;;;7.33;56.06;101953.19;5090715;28;20129;-74
2022/01/16 00:33:44;;;;;;;10.55;6.00;;;;;;;7.35;56.00;101950.44;5085060;28;20105;-74
2022/01/16 00:36:18;;;;;;;10.10;5.90;;;;;;;7.36;55.83;101960.31;5090455;28;20139;-73
2022/01/16 00:38:52;;;;;;;11.45;6.30;;;;;;;7.37;55.87;101967.47;5093896;28;20394;-74
2022/01/16 00:41:20;;;;;;;9.25;5.45;;;;;;;7.38;56.02;101964.72;5084483;28;20467;-74
2022/01/16 00:43:48;;;;;;;9.32;5.38;;;;;;;7.39;55.75;101968.31;5074723;28;20087;-73
2022/01/16 00:46:16;;;;;;;8.43;5.18;;;;;;;7.39;55.94;101961.09;5089491;28;20051;-73
2022/01/16 00:48:42;;;;;;;9.30;5.10;;;;;;;7.40;55.90;101976.38;5087581;28;20091;-73
2022/01/16 00:51:10;;;;;;;8.27;4.75;;;;;;;7.42;55.70;101979.00;5082290;28;20073;-73
2022/01/16 00:53:38;;;;;;;9.93;5.53;;;;;;;7.42;55.72;101965.47;5089382;28;20134;-73
2022/01/16 00:56:06;;;;;;;9.55;5.82;;;;;;;7.44;55.73;101975.31;5089004;28;20109;-73
2022/01/16 00:58:33;;;;;;;9.75;6.13;;;;;;;7.44;55.66;101982.53;5090410;28;20451;-74
2022/01/16 01:01:00;;;;;;;9.90;5.65;;;;;;;7.44;55.83;101972.59;5093061;28;20087;-73
2022/01/16 01:03:26;;;;;;;10.48;6.53;;;;;;;7.44;55.80;101950.97;5083271;28;20084;-74
2022/01/16 01:05:53;;;;;;;10.23;5.78;;;;;;;7.45;55.72;101959.97;5089920;28;20047;-74
2022/01/16 01:08:23;;;;;;;10.68;6.40;;;;;;;7.45;55.56;101965.38;5083634;28;20045;-73
2022/01/16 01:10:52;;;;;;;10.02;6.30;;;;;;;7.45;55.67;101970.78;5085676;28;20124;-73
2022/01/16 01:16:04;;;;;;;12.90;6.97;;;;;;;7.46;55.64;101967.16;5086261;28;20145;-73
2022/01/16 01:18:33;;;;;;;10.63;6.40;;;;;;;7.49;55.62;101984.16;5087942;28;20194;-74
2022/01/16 01:21:03;;;;;;;10.40;6.70;;;;;;;7.49;55.79;101970.63;5084577;28;20072;-74
2022/01/16 01:23:30;;;;;;;11.52;6.60;;;;;;;7.51;55.73;101986.75;5078347;28;20049;-74
2022/01/16 01:25:57;;;;;;;13.82;7.47;;;;;;;7.50;55.77;101994.00;5089804;28;20134;-74
2022/01/16 01:28:23;;;;;;;12.05;6.88;;;;;;;7.50;55.57;101991.28;5068905;28;20563;-74
2022/01/16 01:30:50;;;;;;;11.82;6.88;;;;;;;7.52;55.73;101992.13;5089099;28;20158;-74
2022/01/16 01:33:19;;;;;;;11.45;6.60;;;;;;;7.53;55.74;101987.59;5087997;28;20161;-73
2022/01/16 01:35:46;;;;;;;10.43;6.72;;;;;;;7.54;55.71;101938.03;5089817;28;20085;-73
2022/01/16 01:38:17;;;;;;;12.90;7.18;;;;;;;7.54;55.64;101911.88;5089290;28;20130;-74
2022/01/16 01:40:47;;;;;;;10.85;6.95;;;;;;;7.55;55.76;101924.47;5087877;28;20549;-74
2022/01/16 01:51:22;;;;;;;10.80;6.82;;;;;;;7.56;55.79;101955.06;5078250;28;20131;-74
2022/01/16 01:53:54;;;;;;;13.75;7.85;;;;;;;7.56;55.93;101974.88;5090459;28;20067;-74
2022/01/16 01:56:23;;;;;;;14.30;7.82;;;;;;;7.57;55.97;101981.16;5089086;28;20071;-73
2022/01/16 01:58:51;;;;;;;13.05;7.60;;;;;;;7.59;55.88;101995.47;5083484;28;20135;-73
2022/01/16 02:01:19;;;;;;;13.68;8.32;;;;;;;7.61;55.75;101994.50;5084446;28;20063;-74
2022/01/16 02:03:48;;;;;;;14.55;8.63;;;;;;;7.60;55.90;101998.13;5087872;28;20052;-73
2022/01/16 02:06:18;;;;;;;13.88;8.15;;;;;;;7.62;55.78;102001.66;5088527;28;20107;-74
2022/01/16 02:08:47;;;;;;;13.85;7.90;;;;;;;7.63;55.89;101997.16;5090617;28;20060;-74
2022/01/16 02:11:15;;;;;;;17.17;9.23;;;;;;;7.62;55.95;101985.44;5089668;28;20399;-74
2022/01/16 02:32:47;;;;;;;16.98;9.57;;;;;;;7.66;55.67;101997.00;5090333;28;20048;-73
2022/01/16 02:35:14;;;;;;;17.08;9.20;;;;;;;7.67;55.52;101993.38;5087547;28;20471;-73
2022/01/16 02:37:41;;;;;;;18.42;9.88;;;;;;;7.68;55.67;101988.84;5090390;28;20048;-73
2022/01/16 02:41:05;;;;;;;19.23;11.13;;;;;;;7.70;55.59;101987.88;5086494;28;20498;-74
2022/01/16 02:43:33;;;;;;;16.05;8.73;;;;;;;7.64;55.93;101989.00;5089096;28;20075;-73
2022/01/16 02:48:44;;;;;;;17.75;9.32;;;;;;;7.70;55.63;101966.25;5090149;28;20138;-73
2022/01/16 02:51:14;;;;;;;20.33;10.98;;;;;;;7.71;55.62;101959.03;5088149;28;20155;-73
2022/01/16 02:53:41;;;;;;;18.60;10.02;;;;;;;7.71;55.73;101950.91;5089655;28;20044;-73
2022/01/16 02:56:07;;;;;;;20.40;12.15;;;;;;;7.72;55.97;101944.56;5078226;28;20135;-73
2022/01/16 02:58:34;;;;;;;21.25;11.20;;;;;;;7.72;55.58;101941.88;5087305;28;20446;-73
2022/01/16 03:01:01;;;;;;;20.98;11.63;;;;;;;7.74;55.71;101934.59;5086907;28;20147;-73
2022/01/16 03:03:27;;;;;;;19.67;11.02;;;;;;;7.73;55.76;101931.00;5070860;28;20096;-73
2022/01/16 03:05:54;;;;;;;19.20;10.48;;;;;;;7.74;55.75;101923.78;5084183;28;20083;-73
2022/01/16 03:08:20;;;;;;;18.02;10.13;;;;;;;7.75;55.38;101930.91;5089323;28;20138;-73
2022/01/16 03:13:21;;;;;;;19.73;11.53;;;;;;;7.72;55.77;101931.94;5087656;28;20044;-73
2022/01/16 03:15:51;;;;;;;20.95;11.07;;;;;;;7.77;55.54;101926.34;5069143;28;20055;-73
2022/01/16 03:23:33;;;;;;;21.10;11.93;;;;;;;7.74;55.17;101926.47;5088694;28;20498;-73
2022/01/16 03:26:00;;;;;;;22.50;12.02;;;;;;;7.75;55.18;101930.91;5075578;28;20105;-73
2022/01/16 03:28:27;;;;;;;21.13;12.00;;;;;;;7.74;55.49;101919.22;5081966;28;20054;-73
2022/01/16 03:30:54;;;;;;;21.67;13.05;;;;;;;7.77;55.30;101923.63;5086373;28;20135;-73
2022/01/16 03:33:22;;;;;;;22.30;12.50;;;;;;;7.74;55.10;101912.97;5089050;28;20052;-73
2022/01/16 03:35:49;;;;;;;25.38;13.93;;;;;;;7.75;54.99;101918.28;5066430;28;20076;-74
2022/01/16 03:38:15;;;;;;;26.05;14.30;;;;;;;7.74;54.98;101924.63;5089183;28;20051;-73
2022/01/16 03:40:43;;;;;;;23.20;12.98;;;;;;;7.71;55.11;101922.06;5066578;28;20087;-74
2022/01/16 03:43:13;;;;;;;24.83;13.52;;;;;;;7.71;55.08;101921.19;5088272;28;20044;-73
2022/01/16 03:45:42;;;;;;;21.95;12.75;;;;;;;7.71;54.93;101923.88;5081101;28;20063;-74
2022/01/16 03:48:09;;;;;;;23.92;13.57;;;;;;;7.69;55.25;101921.22;5087155;28;20075;-73
2022/01/16 03:50:36;;;;;;;24.23;13.95;;;;;;;7.69;55.12;101923.06;5080790;28;20139;-73
2022/01/16 03:53:03;;;;;;;24.65;13.77;;;;;;;7.68;55.30;101919.47;5084157;28;20098;-73
2022/01/16 03:55:31;;;;;;;22.98;13.95;;;;;;;7.69;55.30;101920.34;5066275;28;20048;-74
2022/01/16 03:57:58;;;;;;;25.48;14.00;;;;;;;7.69;55.27;101925.75;5073884;28;20123;-73
2022/01/16 04:00:25;;;;;;;24.42;14.18;;;;;;;7.70;55.07;101916.72;5087632;28;20040;-74
2022/01/16 04:02:53;;;;;;;25.73;13.80;;;;;;;7.70;55.34;101911.31;5076079;28;20048;-74
2022/01/16 04:05:19;;;;;;;24.58;14.15;;;;;;;7.69;55.47;101914.94;5084389;28;20083;-74
2022/01/16 04:07:46;;;;;;;26.63;14.40;;;;;;;7.68;55.10;101914.06;5087968;28;20526;-73
2022/01/16 04:10:13;;;;;;;27.00;15.13;;;;;;;7.68;54.85;101916.75;5087088;28;20117;-74
2022/01/16 04:12:40;;;;;;;26.55;14.75;;;;;;;7.67;54.94;101920.41;5087970;28;20344;-74
2022/01/16 04:17:39;;;;;;;25.23;15.40;;;;;;;7.67;55.15;101916.81;5078641;28;20567;-73
2022/01/16 04:20:06;;;;;;;25.63;14.48;;;;;;;7.66;55.08;101921.34;5079197;28;20067;-74
2022/01/16 04:22:33;;;;;;;28.85;15.55;;;;;;;7.66;55.10;101923.19;5077693;28;20441;-74
2022/01/16 04:24:59;;;;;;;25.10;14.75;;;;;;;7.65;55.53;101925.00;5075598;28;20084;-73
2022/01/16 04:27:26;;;;;;;26.45;14.20;;;;;;;7.66;55.31;101940.25;5085612;28;20127;-73
2022/01/16 04:29:53;;;;;;;26.48;15.05;;;;;;;7.64;55.32;101932.22;5087007;28;20138;-73
2022/01/16 04:32:21;;;;;;;25.58;15.02;;;;;;;7.68;55.19;101929.41;5089391;28;20487;-73
2022/01/16 04:34:48;;;;;;;29.55;15.70;;;;;;;7.68;55.46;101922.16;5086730;28;20138;-74
2022/01/16 04:37:15;;;;;;;27.85;15.10;;;;;;;7.69;55.34;101925.75;5075119;28;20052;-74
2022/01/16 04:39:49;;;;;;;28.35;15.27;;;;;;;7.70;55.37;101935.63;5079526;28;20056;-73
2022/01/16 04:45:03;;;;;;;27.30;14.85;;;;;;;7.71;55.40;101923.88;5079367;28;20075;-74
2022/01/16 04:47:30;;;;;;;28.67;15.07;;;;;;;7.73;55.39;101936.41;5086952;28;20506;-74
2022/01/16 04:49:57;;;;;;;29.83;16.30;;;;;;;7.74;55.50;101940.00;5084751;28;20098;-73
2022/01/16 04:52:23;;;;;;;30.42;16.95;;;;;;;7.75;55.10;101930.91;5092307;28;20068;-74
2022/01/16 04:54:50;;;;;;;31.75;17.75;;;;;;;7.77;55.39;101946.16;5085488;28;20147;-74
2022/01/16 04:57:17;;;;;;;29.48;15.65;;;;;;;7.78;55.34;101945.22;5087996;28;20040;-73
2022/01/16 04:59:43;;;;;;;29.67;15.48;;;;;;;7.79;55.34;101946.09;5090696;28;20099;-73
2022/01/16 05:02:10;;;;;;;28.63;16.48;;;;;;;7.78;55.46;101941.63;5091689;28;20082;-73
2022/01/16 05:04:37;;;;;;;28.50;15.73;;;;;;;7.80;55.05;101934.34;5090012;28;20087;-74
2022/01/16 05:07:06;;;;;;;31.95;16.35;;;;;;;7.80;55.59;101932.53;5085629;28;20592;-74
2022/01/16 05:09:32;;;;;;;33.22;15.38;;;;;;;7.81;55.19;101928.00;5090449;28;20048;-74
2022/01/16 05:12:08;;;;;;;32.40;16.67;;;;;;;7.81;55.21;101928.00;5085881;28;20491;-74
2022/01/16 05:17:19;;;;;;;30.40;15.35;;;;;;;7.80;55.38;101919.00;5076685;28;20080;-74
2022/01/16 05:19:46;;;;;;;35.55;17.25;;;;;;;7.82;55.38;101922.53;5082512;28;20062;-73
2022/01/16 05:22:12;;;;;;;28.45;15.13;;;;;;;7.83;55.34;101912.59;5083295;28;20060;-73
2022/01/16 05:24:39;;;;;;;33.35;17.83;;;;;;;7.83;55.24;101908.06;5086976;28;20137;-74
2022/01/16 05:27:07;;;;;;;28.45;16.02;;;;;;;7.84;55.28;101912.53;5081097;28;20107;-73
2022/01/16 05:29:33;;;;;;;28.65;16.05;;;;;;;7.84;55.22;101915.22;5086191;28;20056;-73
2022/01/16 05:32:00;;;;;;;30.75;16.10;;;;;;;7.86;55.39;101915.19;5069603;28;20045;-73
2022/01/16 05:34:29;;;;;;;26.85;14.88;;;;;;;7.87;55.29;101911.53;5083786;28;20052;-73
2022/01/16 05:36:55;;;;;;;27.55;14.85;;;;;;;7.87;55.42;101911.53;5087034;28;20048;-74
2022/01/16 05:39:22;;;;;;;29.17;16.63;;;;;;;7.88;55.38;101916.91;5083343;28;20083;-73
2022/01/16 05:41:48;;;;;;;31.15;17.20;;;;;;;7.89;55.06;101912.38;5086142;28;20087;-74
2022/01/16 05:44:15;;;;;;;37.25;18.30;;;;;;;7.90;55.20;101914.13;5089268;28;20044;-73
2022/01/16 05:46:42;;;;;;;27.50;15.88;;;;;;;7.89;55.51;101907.84;5085975;28;20051;-73
2022/01/16 05:49:09;;;;;;;29.40;15.90;;;;;;;7.90;55.44;101919.53;5077013;28;20514;-73
2022/01/16 05:51:35;;;;;;;31.65;15.60;;;;;;;7.89;55.36;101921.38;5091056;28;20048;-73
2022/01/16 05:54:02;;;;;;;31.77;16.67;;;;;;;7.91;55.40;101932.09;5078856;28;20044;-73
2022/01/16 05:56:28;;;;;;;28.50;15.98;;;;;;;7.91;55.17;101935.69;5089979;28;20109;-73
2022/01/16 05:58:55;;;;;;;31.45;15.48;;;;;;;7.91;55.11;101929.38;5086235;28;20079;-74
2022/01/16 06:01:21;;;;;;;28.75;15.77;;;;;;;7.90;55.23;101933.94;5090620;28;20055;-73
2022/01/16 06:03:48;;;;;;;30.13;16.40;;;;;;;7.91;55.40;101934.78;5094895;28;20044;-73
2022/01/16 06:06:15;;;;;;;27.50;15.05;;;;;;;7.92;55.21;101925.75;5082937;28;20052;-73
2022/01/16 06:08:43;;;;;;;28.05;15.93;;;;;;;7.93;55.48;101924.81;5076050;28;20364;-73
2022/01/16 06:11:09;;;;;;;29.60;15.23;;;;;;;7.92;55.26;101914.94;5071844;28;20135;-73
2022/01/16 06:13:36;;;;;;;29.80;15.85;;;;;;;7.92;55.18;101914.94;5084159;28;20345;-73
2022/01/16 06:16:03;;;;;;;28.92;15.18;;;;;;;7.93;55.37;101909.47;5079162;28;20086;-73
2022/01/16 06:18:31;;;;;;;29.65;15.90;;;;;;;7.93;55.19;101909.47;5084238;28;20052;-73
2022/01/16 06:20:57;;;;;;;29.90;16.80;;;;;;;7.95;55.45;101912.13;5089745;28;20139;-73
2022/01/16 06:23:24;;;;;;;29.10;16.08;;;;;;;7.94;55.20;101913.94;5074202;28;20094;-73
2022/01/16 06:25:54;;;;;;;30.65;16.13;;;;;;;7.94;55.25;101916.66;5088081;28;20111;-73
2022/01/16 06:28:23;;;;;;;30.77;16.63;;;;;;;7.96;55.37;101917.47;5089886;28;20047;-73
2022/01/16 06:30:49;;;;;;;27.40;14.88;;;;;;;7.94;55.16;101924.75;5071096;28;20154;-73
2022/01/16 06:33:17;;;;;;;25.55;15.38;;;;;;;7.94;55.04;101932.88;5085068;28;20102;-73
2022/01/16 06:35:43;;;;;;;25.85;15.75;;;;;;;7.95;55.21;101936.47;5088184;28;20082;-73
2022/01/16 06:38:10;;;;;;;29.63;15.73;;;;;;;7.94;55.25;101938.28;5086263;28;20076;-73
2022/01/16 06:40:36;;;;;;;27.52;15.07;;;;;;;7.95;55.23;101942.75;5089563;28;20502;-72
2022/01/16 06:43:03;;;;;;;28.13;15.50;;;;;;;7.95;55.33;101945.44;5087505;28;20120;-73
2022/01/16 06:45:29;;;;;;;30.45;16.20;;;;;;;7.95;55.10;101948.16;5087248;28;20503;-73
2022/01/16 06:47:56;;;;;;;27.77;16.02;;;;;;;7.96;55.51;101944.53;5088912;28;20495;-73
2022/01/16 06:50:23;;;;;;;34.08;16.63;;;;;;;7.97;55.30;101942.69;5065691;28;20076;-73
2022/01/16 06:52:49;;;;;;;27.83;15.73;;;;;;;7.97;55.25;101945.41;5086126;28;20090;-73
2022/01/16 06:55:16;;;;;;;27.58;16.05;;;;;;;7.98;55.21;101949.88;5082741;28;20119;-73
2022/01/16 06:57:42;;;;;;;28.02;15.20;;;;;;;7.98;55.26;101947.16;5089606;28;20507;-73
2022/01/16 07:00:09;;;;;;;32.97;16.42;;;;;;;7.98;55.24;101939.94;5080245;28;20075;-73
2022/01/16 07:02:36;;;;;;;31.10;16.02;;;;;;;8.00;55.02;101948.84;5092405;28;20691;-73
2022/01/16 07:05:04;;;;;;;28.90;14.93;;;;;;;8.01;54.93;101955.13;5069036;28;20051;-73
2022/01/16 07:07:32;;;;;;;26.27;15.23;;;;;;;8.01;55.17;101949.72;5086463;28;20353;-73
2022/01/16 07:09:59;;;;;;;29.30;16.30;;;;;;;8.01;55.25;101952.44;5083190;28;20478;-73
2022/01/16 07:12:25;;;;;;;33.20;17.58;;;;;;;8.01;55.36;101950.63;5088744;28;20044;-73
2022/01/16 07:14:52;;;;;;;31.25;16.60;;;;;;;8.03;55.07;101958.69;5069602;28;20491;-73
2022/01/16 07:17:18;;;;;;;33.25;16.75;;;;;;;8.03;54.90;101972.19;5076194;28;20076;-73
2022/01/16 07:19:45;;;;;;;26.02;14.82;;;;;;;8.04;55.19;101971.25;5064806;28;20465;-73
2022/01/16 07:22:12;;;;;;;27.60;15.68;;;;;;;8.05;55.26;101969.44;5088710;28;20110;-73
2022/01/16 07:24:38;;;;;;;31.20;15.82;;;;;;;8.05;55.12;101970.31;5085239;28;20581;-73
2022/01/16 07:27:05;;;;;;;33.30;17.92;;;;;;;8.06;55.43;101977.50;5088448;28;20044;-73
2022/01/16 07:29:31;;;;;;;32.38;17.70;;;;;;;8.07;55.26;101978.38;5088441;28;20064;-73
2022/01/16 07:31:59;;;;;;;32.85;17.77;;;;;;;8.07;55.48;101975.69;5085499;28;20445;-73
2022/01/16 07:34:26;;;;;;;33.97;17.17;;;;;;;8.08;55.03;101980.13;5082574;28;20055;-73
2022/01/16 07:36:53;;;;;;;29.50;16.52;;;;;;;8.09;55.24;101979.19;5086390;28;20044;-73
2022/01/16 07:39:20;;;;;;;35.22;18.10;;;;;;;8.10;55.28;101989.06;5088162;28;20090;-73
2022/01/16 07:41:46;;;;;;;31.58;17.35;;;;;;;8.09;55.38;101987.28;5088269;28;20126;-73
2022/01/16 07:44:14;;;;;;;30.05;17.25;;;;;;;8.11;55.21;101988.13;5081216;28;20118;-73
2022/01/16 07:46:41;;;;;;;30.27;16.05;;;;;;;8.12;55.27;101993.47;5085628;28;20479;-73
2022/01/16 07:49:08;;;;;;;33.53;17.95;;;;;;;8.11;55.20;101990.84;5088168;28;20105;-73
2022/01/16 07:51:34;;;;;;;31.40;17.23;;;;;;;8.14;55.21;101998.84;5088764;28;20397;-73
2022/01/16 07:54:01;;;;;;;30.23;17.60;;;;;;;8.15;55.26;102006.91;5070012;28;20040;-73
2022/01/16 07:56:27;;;;;;;30.83;17.33;;;;;;;8.15;55.28;102012.31;5079959;28;20091;-73
2022/01/16 07:58:54;;;;;;;29.05;17.25;;;;;;;8.17;55.19;102001.41;5081195;28;20071;-73
2022/01/16 08:01:21;;;;;;;32.10;17.20;;;;;;;8.19;55.07;102010.34;5087530;28;20511;-72
2022/01/16 08:03:48;;;;;;;30.40;16.83;;;;;;;8.19;54.90;102007.66;5098242;28;20101;-73
2022/01/16 08:06:17;;;;;;;32.25;17.33;;;;;;;8.22;54.87;102010.25;5082649;28;20080;-72
2022/01/16 08:08:44;;;;;;;30.65;17.65;;;;;;;8.22;54.84;102013.84;5089525;28;20052;-72
2022/01/16 08:11:10;;;;;;;31.13;19.15;;;;;;;8.23;54.90;102012.03;5083518;28;20052;-72
2022/01/16 08:13:37;;;;;;;31.13;17.63;;;;;;;8.22;55.01;102008.44;5088289;28;20052;-72
2022/01/16 08:16:08;;;;;;;31.15;17.52;;;;;;;8.25;54.72;102011.00;5085121;28;20537;-72
2022/01/16 08:18:35;;;;;;;30.00;19.17;;;;;;;8.25;54.75;102016.41;5069875;28;20083;-72
2022/01/16 08:21:02;;;;;;;32.15;19.02;;;;;;;8.24;54.78;102005.63;5074846;28;20055;-72
2022/01/16 08:23:29;;;;;;;31.02;18.63;;;;;;;8.24;54.76;102005.63;5089090;28;20058;-72
2022/01/16 08:25:55;;;;;;;33.55;19.13;;;;;;;8.25;54.67;102002.88;5086473;28;20040;-72
2022/01/16 08:28:23;;;;;;;30.45;18.10;;;;;;;8.25;54.62;102002.88;5090068;28;20162;-72
2022/01/16 08:30:50;;;;;;;32.35;18.52;;;;;;;8.24;54.73;102002.94;5089112;28;20052;-72
2022/01/16 08:33:17;;;;;;;27.42;17.60;;;;;;;8.24;54.98;102000.22;5074008;28;20044;-72
2022/01/16 08:35:43;;;;;;;33.15;18.50;;;;;;;8.24;54.82;102013.75;5069843;28;20056;-72
2022/01/16 08:38:10;;;;;;;31.77;18.65;;;;;;;8.24;54.83;102022.75;5078503;28;20098;-72
2022/01/16 08:40:37;;;;;;;30.65;18.17;;;;;;;8.24;54.89;102009.22;5082900;28;20067;-73
2022/01/16 08:43:08;;;;;;;33.08;18.92;;;;;;;8.25;54.75;102029.03;5092247;28;20097;-72
2022/01/16 08:45:37;;;;;;;30.63;18.67;;;;;;;8.24;54.99;102027.28;5088966;28;20097;-72
2022/01/16 08:48:05;;;;;;;33.70;19.30;;;;;;;8.25;54.91;102023.63;5071345;28;20045;-73
2022/01/16 08:50:34;;;;;;;31.23;17.88;;;;;;;8.26;54.95;102029.00;5084498;28;20049;-73
2022/01/16 08:53:01;;;;;;;29.40;16.73;;;;;;;8.26;55.12;102033.53;5090877;28;20079;-73
2022/01/16 08:55:28;;;;;;;27.85;17.40;;;;;;;8.27;54.81;102033.47;5088156;28;20414;-73
2022/01/16 08:57:58;;;;;;;34.22;18.67;;;;;;;8.29;54.92;102042.41;5085704;28;20673;-73
2022/01/16 09:00:26;;;;;;;34.03;18.92;;;;;;;8.30;54.90;102048.72;5086313;28;20040;-73
2022/01/16 09:02:53;;;;;;;31.40;18.35;;;;;;;8.27;55.08;102047.00;5095922;28;20051;-73
2022/01/16 09:05:20;;;;;;;32.72;18.75;;;;;;;8.27;54.70;102048.81;5089107;28;20137;-73
2022/01/16 09:07:50;;;;;;;28.77;17.25;;;;;;;8.28;55.00;102048.75;5089296;28;20079;-73
2022/01/16 09:10:17;;;;;;;32.47;17.40;;;;;;;8.30;55.06;102049.59;5091299;28;20511;-73
2022/01/16 09:12:43;;;;;;;32.88;17.58;;;;;;;8.31;55.04;102050.50;5075283;28;20055;-73
2022/01/16 09:15:12;;;;;;;31.05;17.67;;;;;;;8.34;54.68;102055.78;5086288;28;20581;-73
2022/01/16 09:17:40;;;;;;;32.17;18.15;;;;;;;8.35;55.04;102053.03;5082881;28;20051;-73
2022/01/16 09:20:08;;;;;;;30.52;17.55;;;;;;;8.35;54.96;102063.84;5088208;28;20048;-73
2022/01/16 09:22:36;;;;;;;31.50;17.70;;;;;;;8.36;54.89;102062.03;5090591;28;20044;-73
2022/01/16 09:25:05;;;;;;;32.03;18.35;;;;;;;8.37;54.68;102058.38;5062507;28;20044;-73
2022/01/16 09:27:33;;;;;;;30.92;17.48;;;;;;;8.38;55.08;102068.28;5090221;28;20121;-73
2022/01/16 09:29:59;;;;;;;30.27;17.45;;;;;;;8.38;55.12;102068.28;5089077;28;20084;-73
2022/01/16 09:32:26;;;;;;;28.77;16.15;;;;;;;8.38;55.09;102070.97;5084244;28;20087;-73
2022/01/16 09:34:53;;;;;;;32.13;17.58;;;;;;;8.38;55.19;102079.97;5089299;28;20135;-73
2022/01/16 09:37:19;;;;;;;31.48;17.02;;;;;;;8.40;55.20;102078.06;5097194;28;20101;-73
2022/01/16 09:39:46;;;;;;;27.92;16.40;;;;;;;8.43;55.10;102076.19;5087443;28;20114;-73
2022/01/16 09:42:13;;;;;;;33.03;18.40;;;;;;;8.44;54.97;102076.16;5078107;28;20044;-73
2022/01/16 09:44:40;;;;;;;30.60;17.02;;;;;;;8.45;55.09;102075.22;5087033;28;20056;-73
2022/01/16 09:47:09;;;;;;;30.10;15.95;;;;;;;8.47;55.08;102083.28;5068405;28;20044;-73
2022/01/16 09:49:36;;;;;;;32.78;16.48;;;;;;;8.48;54.99;102071.50;5082092;28;20097;-73
2022/01/16 09:52:03;;;;;;;32.85;16.55;;;;;;;8.49;55.06;102073.25;5087437;28;20474;-74
2022/01/16 09:54:29;;;;;;;24.55;14.73;;;;;;;8.51;54.91;102084.91;5089715;28;20163;-74
2022/01/16 09:56:56;;;;;;;29.23;17.05;;;;;;;8.53;55.08;102085.75;5087797;28;20480;-74
2022/01/16 09:59:23;;;;;;;29.90;16.38;;;;;;;8.52;55.15;102092.97;5075329;28;20565;-74
2022/01/16 10:01:50;;;;;;;28.65;16.55;;;;;;;8.56;54.67;102082.94;5067232;28;20138;-74
2022/01/16 10:04:40;;;;;;;31.77;17.33;;;;;;;8.58;54.62;102083.72;5083121;28;20052;-73
2022/01/16 10:07:14;;;;;;;30.80;16.58;;;;;;;8.59;55.02;102089.09;5089049;28;20101;-73
2022/01/16 10:09:43;;;;;;;30.52;17.50;;;;;;;8.60;54.87;102087.25;5089623;28;20147;-73
2022/01/16 10:12:16;;;;;;;27.48;16.42;;;;;;;8.60;54.75;102085.44;5086862;28;20075;-74
2022/01/16 10:14:49;;;;;;;30.55;16.83;;;;;;;8.61;54.80;102089.03;5082012;28;20071;-74
2022/01/16 10:17:22;;;;;;;28.15;15.65;;;;;;;8.64;54.88;102094.34;5063017;28;20109;-74
2022/01/16 10:20:03;;;;;;;25.58;15.63;;;;;;;8.63;55.03;102089.84;5083078;28;20079;-74
2022/01/16 10:22:39;;;;;;;28.63;15.73;;;;;;;8.65;54.97;102096.94;5086877;28;20052;-73
2022/01/16 10:25:07;;;;;;;30.52;17.00;;;;;;;8.66;54.97;102100.53;5083419;28;20463;-74
2022/01/16 10:27:37;;;;;;;28.40;16.52;;;;;;;8.67;55.25;102092.38;5081898;28;20152;-73
2022/01/16 10:30:07;;;;;;;31.67;16.77;;;;;;;8.67;55.00;102105.91;5082039;28;20113;-74
2022/01/16 10:32:40;;;;;;;31.50;16.48;;;;;;;8.70;55.10;102096.78;5088366;28;20040;-74
2022/01/16 10:35:14;;;;;;;31.27;16.27;;;;;;;8.69;54.65;102101.31;5086800;28;20087;-74
2022/01/16 10:37:44;;;;;;;29.60;15.80;;;;;;;8.71;55.05;102093.16;5085008;28;20101;-74
2022/01/16 10:40:15;;;;;;;30.27;15.68;;;;;;;8.72;55.10;102100.34;5088781;28;20495;-74
2022/01/16 10:42:54;;;;;;;28.02;16.13;;;;;;;8.74;55.05;102088.47;5069200;28;20047;-74
2022/01/16 10:45:30;;;;;;;28.45;15.60;;;;;;;8.78;54.88;102083.84;5080056;28;20127;-74
2022/01/16 10:47:59;;;;;;;36.95;19.08;;;;;;;8.78;55.06;102097.38;5087611;28;20036;-74
2022/01/16 10:50:32;;;;;;;30.25;18.30;;;;;;;8.79;55.04;102096.44;5100014;28;20082;-74
2022/01/16 10:53:01;;;;;;;32.63;18.25;;;;;;;8.80;55.03;102100.91;5090403;28;20040;-74
2022/01/16 10:55:37;;;;;;;33.63;17.85;;;;;;;8.82;55.11;102098.13;5082425;28;20473;-74
2022/01/16 10:58:08;;;;;;;33.80;18.08;;;;;;;8.82;55.14;102107.13;5083034;28;20079;-74
2022/01/16 11:00:36;;;;;;;28.75;17.05;;;;;;;8.83;55.09;102110.72;5082547;28;20093;-73
2022/01/16 11:03:08;;;;;;;33.70;17.50;;;;;;;8.86;55.07;102108.78;5083393;28;20091;-73
2022/01/16 11:05:38;;;;;;;32.77;17.10;;;;;;;8.85;55.07;102106.13;5084862;28;20087;-73
2022/01/16 11:08:12;;;;;;;33.70;17.70;;;;;;;8.86;55.10;102108.78;5084471;28;20325;-73
2022/01/16 11:10:46;;;;;;;34.33;17.80;;;;;;;8.86;54.90;102114.19;5086169;28;20055;-73
2022/01/16 11:13:15;;;;;;;33.72;18.27;;;;;;;8.88;55.01;102124.97;5087817;28;20052;-73
2022/01/16 11:15:47;;;;;;;33.50;17.80;;;;;;;8.87;55.10;102128.63;5059891;28;20542;-74
2022/01/16 11:18:16;;;;;;;35.72;18.60;;;;;;;8.85;55.12;102136.81;5084015;28;20048;-73
2022/01/16 11:20:52;;;;;;;31.42;16.40;;;;;;;8.88;55.09;102135.81;5088516;28;20534;-73
2022/01/16 11:26:08;;;;;;;31.10;15.48;;;;;;;8.86;55.34;102134.97;5048036;28;20068;-73
2022/01/16 11:28:35;;;;;;;37.95;18.25;;;;;;;8.89;55.21;102138.47;5090229;28;20052;-74
2022/01/16 11:31:05;;;;;;;35.10;18.13;;;;;;;8.91;55.21;102131.13;5080979;28;20440;-75
2022/01/16 11:33:34;;;;;;;34.10;17.17;;;;;;;8.91;55.31;102131.13;5060634;28;20067;-74
2022/01/16 11:36:13;;;;;;;28.52;15.75;;;;;;;8.94;55.05;102122.91;5077430;28;20097;-74
2022/01/16 11:38:44;;;;;;;34.85;17.17;;;;;;;8.94;55.30;102130.13;5080828;28;20083;-74
2022/01/16 11:41:34;;;;;;;33.13;16.95;;;;;;;8.93;55.49;102129.25;5082670;28;20060;-75
2022/01/16 11:44:05;;;;;;;33.03;16.63;;;;;;;8.95;55.54;102124.66;5077805;28;20146;-74
2022/01/16 11:46:34;;;;;;;34.10;16.98;;;;;;;8.98;55.35;102119.09;5083770;28;20055;-75
2022/01/16 11:49:02;;;;;;;35.08;18.55;;;;;;;8.99;55.33;102123.59;5080774;28;20048;-75
2022/01/16 11:51:34;;;;;;;33.63;17.48;;;;;;;9.03;55.25;102124.34;5084021;28;20044;-73
2022/01/16 11:54:01;;;;;;;31.67;16.55;;;;;;;9.00;55.54;102124.47;5084943;28;20068;-74
2022/01/16 11:56:43;;;;;;;29.80;17.92;;;;;;;9.10;55.31;102117.75;5083851;28;20048;-74
2022/01/16 11:59:18;;;;;;;32.58;17.33;;;;;;;9.09;55.31;102124.09;5082474;28;20051;-75
2022/01/16 12:01:46;;;;;;;32.25;17.63;;;;;;;9.10;55.14;102125.88;5067788;28;20040;-74
2022/01/16 12:04:28;;;;;;;35.17;19.33;;;;;;;9.12;55.19;102121.28;5063636;28;20052;-74
2022/01/16 12:07:04;;;;;;;32.00;17.17;;;;;;;9.13;55.28;102121.22;5086777;28;20097;-74
2022/01/16 12:12:13;;;;;;;32.45;17.63;;;;;;;9.13;55.23;102120.34;5086734;28;20075;-74
2022/01/16 12:14:51;;;;;;;33.92;17.45;;;;;;;9.21;55.02;102114.59;5083406;28;20048;-73
2022/01/16 12:17:44;;;;;;;35.05;17.77;;;;;;;9.18;54.93;102123.72;5091380;28;20075;-73
2022/01/16 12:20:17;;;;;;;33.92;18.00;;;;;;;9.12;55.54;102127.59;5084528;28;20060;-73
2022/01/16 12:22:56;;;;;;;29.23;16.15;;;;;;;9.16;55.28;102126.50;5093154;28;20475;-73